createdAt,value
2023-03-03T00:01:57.159Z,253.68
2023-03-03T00:04:24.825Z,219.45
2023-03-03T00:06:53.094Z,320.17
2023-03-03T00:09:22.654Z,275.98
2023-03-03T00:11:56.378Z,236.35
2023-03-03T00:14:30.419Z,168.13
2023-03-03T00:17:01.655Z,181.95
2023-03-03T00:19:37.572Z,177.07
2023-03-03T00:22:22.891Z,171.35
2023-03-03T00:24:53.893Z,187.85
2023-03-03T00:27:38.701Z,242.65
2023-03-03T00:30:20.572Z,186.15
2023-03-03T00:32:50.642Z,178.68
2023-03-03T00:35:30.969Z,176.80
2023-03-03T00:38:02.133Z,218.07
2023-03-03T00:40:36.866Z,260.52
2023-03-03T00:43:23.222Z,201.57
2023-03-03T00:45:53.782Z,171.13
2023-03-03T00:48:30.236Z,254.77
2023-03-03T00:51:01.708Z,192.82
2023-03-03T00:53:30.987Z,305.02
2023-03-03T00:55:58.866Z,181.45
2023-03-03T00:58:32.309Z,340.30
2023-03-03T01:00:59.743Z,323.08
2023-03-03T01:03:29.314Z,263.40
2023-03-03T01:05:56.941Z,173.30
2023-03-03T01:08:24.900Z,246.05
2023-03-03T01:10:56.497Z,434.95
2023-03-03T01:13:28.576Z,234.27
2023-03-03T01:15:56.420Z,268.90
2023-03-03T01:18:23.601Z,197.50
2023-03-03T01:20:51.067Z,298.80
2023-03-03T01:23:19.782Z,198.50
2023-03-03T01:25:48.310Z,290.67
2023-03-03T01:28:16.785Z,197.57
2023-03-03T01:30:44.261Z,235.20
2023-03-03T01:33:12.669Z,231.02
2023-03-03T01:35:47.865Z,196.10
2023-03-03T01:38:16.274Z,204.15
2023-03-03T01:40:43.837Z,256.50
2023-03-03T01:43:16.308Z,229.15
2023-03-03T01:46:03.840Z,238.55
2023-03-03T01:48:43.148Z,231.95
2023-03-03T01:51:24.207Z,264.10
2023-03-03T01:53:58.508Z,196.38
2023-03-03T01:56:27.227Z,220.70
2023-03-03T01:59:07.748Z,210.32
2023-03-03T02:01:36.614Z,225.65
2023-03-03T02:04:04.540Z,253.68
2023-03-03T02:06:46.581Z,309.08
2023-03-03T02:09:45.463Z,295.27
2023-03-03T02:12:17.348Z,293.92
2023-03-03T02:14:45.025Z,291.52
2023-03-03T02:17:12.512Z,195.90
2023-03-03T02:19:42.628Z,207.13
2023-03-03T02:22:10.973Z,195.18
2023-03-03T02:25:00.339Z,188.60
2023-03-03T02:27:32.188Z,186.68
2023-03-03T02:30:10.468Z,280.10
2023-03-03T02:32:40.046Z,235.18
2023-03-03T02:35:33.846Z,186.07
2023-03-03T02:38:07.589Z,219.30
2023-03-03T02:40:41.238Z,244.45
2023-03-03T02:43:10.549Z,177.20
2023-03-03T02:45:43.876Z,186.30
2023-03-03T02:50:38.842Z,210.32
2023-03-03T02:53:06.381Z,247.25
2023-03-03T02:55:33.741Z,203.27
2023-03-03T02:58:01.303Z,195.10
2023-03-03T03:00:28.767Z,202.93
2023-03-03T03:02:55.848Z,252.77
2023-03-03T03:05:24.063Z,240.43
2023-03-03T03:07:51.537Z,191.48
2023-03-03T03:10:18.978Z,244.05
2023-03-03T03:12:46.460Z,187.95
2023-03-03T03:15:14.023Z,185.70
2023-03-03T03:17:42.576Z,177.98
2023-03-03T03:20:10.612Z,206.88
2023-03-03T03:22:44.063Z,261.35
2023-03-03T03:25:11.539Z,169.65
2023-03-03T03:27:38.984Z,285.88
2023-03-03T03:30:06.862Z,242.25
2023-03-03T03:32:35.420Z,267.85
2023-03-03T03:35:02.941Z,240.45
2023-03-03T03:37:30.468Z,227.27
2023-03-03T03:39:57.734Z,225.07
2023-03-03T03:42:25.262Z,203.93
2023-03-03T03:44:59.379Z,301.17
2023-03-03T03:47:26.901Z,186.73
2023-03-03T03:49:55.275Z,200.02
2023-03-03T03:52:22.744Z,171.35
2023-03-03T03:54:50.226Z,194.52
2023-03-03T03:57:17.625Z,180.38
2023-03-03T03:59:45.111Z,184.30
2023-03-03T04:02:12.363Z,164.82
2023-03-03T04:04:40.701Z,156.98
2023-03-03T04:07:10.128Z,169.18
2023-03-03T04:09:39.156Z,170.50
2023-03-03T04:12:06.747Z,185.05
2023-03-03T04:14:35.109Z,178.05
2023-03-03T04:17:02.525Z,156.85
2023-03-03T04:19:30.056Z,197.27
2023-03-03T04:21:57.474Z,167.98
2023-03-03T04:24:24.911Z,180.35
2023-03-03T04:26:54.669Z,168.57
2023-03-03T04:29:21.861Z,157.10
2023-03-03T04:31:49.246Z,177.90
2023-03-03T04:34:17.732Z,171.43
2023-03-03T04:36:45.389Z,152.55
2023-03-03T04:39:14.752Z,154.13
2023-03-03T04:41:42.264Z,203.10
2023-03-03T04:44:09.670Z,177.05
2023-03-03T04:46:37.363Z,196.18
2023-03-03T04:49:06.647Z,165.70
2023-03-03T04:51:36.460Z,164.77
2023-03-03T04:54:03.702Z,175.90
2023-03-03T04:56:31.999Z,156.57
2023-03-03T04:58:59.560Z,171.65
2023-03-03T05:01:27.190Z,172.07
2023-03-03T05:03:55.382Z,182.30
2023-03-03T05:06:22.507Z,165.65
2023-03-03T05:08:49.856Z,170.48
2023-03-03T05:11:17.254Z,180.63
2023-03-03T05:13:46.345Z,179.32
2023-03-03T05:16:22.222Z,178.27
2023-03-03T05:18:49.385Z,185.25
2023-03-03T05:21:16.930Z,184.35
2023-03-03T05:23:45.280Z,204.13
2023-03-03T05:26:12.779Z,191.65
2023-03-03T05:28:40.501Z,210.55
2023-03-03T05:31:08.816Z,203.52
2023-03-03T05:33:37.312Z,262.73
2023-03-03T05:36:05.850Z,231.55
2023-03-03T05:38:33.266Z,220.40
2023-03-03T05:41:00.509Z,206.15
2023-03-03T05:43:28.660Z,191.52
2023-03-03T05:45:57.422Z,221.77
2023-03-03T05:48:25.217Z,205.70
2023-03-03T05:50:52.731Z,218.82
2023-03-03T05:53:20.050Z,204.85
2023-03-03T05:55:53.737Z,182.77
2023-03-03T05:58:27.259Z,190.52
2023-03-03T06:00:55.728Z,185.93
2023-03-03T06:03:23.054Z,189.82
2023-03-03T06:05:50.622Z,194.85
2023-03-03T06:08:18.244Z,207.55
2023-03-03T06:10:47.627Z,253.40
2023-03-03T06:13:16.143Z,237.23
2023-03-03T06:15:43.949Z,230.82
2023-03-03T06:18:11.608Z,207.50
2023-03-03T06:20:39.386Z,229.82
2023-03-03T06:23:07.110Z,213.77
2023-03-03T06:25:40.630Z,218.00
2023-03-03T06:28:09.048Z,204.70
2023-03-03T06:30:37.590Z,211.00
2023-03-03T06:33:05.316Z,234.63
2023-03-03T06:35:33.050Z,220.98
2023-03-03T06:38:00.395Z,232.55
2023-03-03T06:40:29.936Z,222.98
2023-03-03T06:42:58.106Z,195.77
2023-03-03T06:45:27.848Z,233.43
2023-03-03T06:47:55.301Z,235.40
2023-03-03T06:50:22.776Z,287.73
2023-03-03T06:52:58.250Z,180.68
2023-03-03T06:55:27.026Z,179.73
2023-03-03T06:57:56.124Z,163.30
2023-03-03T07:00:33.623Z,165.75
2023-03-03T07:03:06.382Z,156.52
2023-03-03T07:05:36.664Z,148.18
2023-03-03T07:08:11.719Z,133.15
2023-03-03T07:10:39.987Z,163.93
2023-03-03T07:13:30.271Z,459.98
2023-03-03T07:16:02.711Z,182.90
2023-03-03T07:18:53.246Z,250.73
2023-03-03T07:21:35.643Z,209.10
2023-03-03T07:24:19.236Z,196.05
2023-03-03T07:29:20.037Z,134.85
2023-03-03T07:31:50.443Z,174.63
2023-03-03T07:34:38.310Z,146.20
2023-03-03T07:37:38.963Z,158.55
2023-03-03T07:40:31.998Z,135.02
2023-03-03T07:42:59.636Z,146.98
2023-03-03T07:45:35.088Z,139.45
2023-03-03T07:48:24.336Z,169.15
2023-03-03T07:50:52.646Z,135.60
2023-03-03T07:53:29.253Z,148.57
2023-03-03T07:55:57.549Z,119.10
2023-03-03T07:58:38.883Z,154.15
2023-03-03T08:01:25.043Z,125.80
2023-03-03T08:03:53.810Z,133.57
2023-03-03T08:06:37.519Z,125.70
2023-03-03T08:09:11.132Z,114.55
2023-03-03T08:12:11.647Z,121.22
2023-03-03T08:14:40.473Z,119.78
2023-03-03T08:17:37.469Z,125.55
2023-03-03T08:20:46.472Z,127.55
2023-03-03T08:23:18.110Z,125.70
2023-03-03T08:25:46.560Z,108.70
2023-03-03T08:28:14.463Z,115.38
2023-03-03T08:30:44.289Z,102.55
2023-03-03T08:33:12.463Z,115.55
2023-03-03T08:35:42.689Z,119.72
2023-03-03T08:38:11.220Z,100.18
2023-03-03T08:40:41.055Z,106.72
2023-03-03T08:43:10.889Z,104.15
2023-03-03T08:45:38.448Z,90.13
2023-03-03T08:48:06.292Z,90.47
2023-03-03T08:50:34.102Z,84.88
2023-03-03T08:53:08.439Z,89.35
2023-03-03T08:55:36.719Z,76.82
2023-03-03T08:58:06.069Z,70.97
2023-03-03T09:00:34.950Z,67.68
2023-03-03T09:03:02.434Z,71.32
2023-03-03T09:05:30.232Z,70.75
2023-03-03T09:07:58.066Z,67.43
2023-03-03T09:10:32.110Z,68.50
2023-03-03T09:13:03.518Z,66.13
2023-03-03T09:15:36.713Z,66.63
2023-03-03T09:18:20.464Z,56.88
2023-03-03T09:20:50.957Z,52.65
2023-03-03T09:23:37.872Z,49.58
2023-03-03T09:26:30.779Z,48.13
2023-03-03T09:29:17.181Z,54.30
2023-03-03T09:31:52.356Z,53.63
2023-03-03T09:34:28.175Z,51.15
2023-03-03T09:36:56.791Z,46.00
2023-03-03T09:39:28.063Z,55.45
2023-03-03T09:41:55.501Z,54.50
2023-03-03T09:44:57.462Z,52.80
2023-03-03T09:47:34.135Z,57.13
2023-03-03T09:50:22.901Z,54.00
2023-03-03T09:53:20.054Z,51.53
2023-03-03T09:56:13.267Z,50.35
2023-03-03T09:58:52.176Z,51.88
2023-03-03T10:01:38.734Z,48.90
2023-03-03T10:04:28.234Z,51.95
2023-03-03T10:07:40.089Z,48.63
2023-03-03T10:10:40.849Z,53.70
2023-03-03T10:13:16.204Z,53.83
2023-03-03T10:16:05.399Z,54.30
2023-03-03T10:18:58.867Z,61.38
2023-03-03T10:21:35.068Z,58.42
2023-03-03T10:24:17.499Z,52.30
2023-03-03T10:27:15.434Z,49.90
2023-03-03T10:29:51.909Z,46.80
2023-03-03T10:32:46.190Z,50.38
2023-03-03T10:35:31.510Z,44.88
2023-03-03T10:38:17.542Z,44.58
2023-03-03T10:41:11.145Z,46.65
2023-03-03T10:43:56.344Z,43.83
2023-03-03T10:46:33.965Z,41.08
2023-03-03T10:49:13.990Z,49.95
2023-03-03T10:52:03.903Z,86.50
2023-03-03T10:55:00.986Z,81.85
2023-03-03T10:57:40.899Z,55.80
2023-03-03T11:00:26.904Z,57.67
2023-03-03T11:03:29.203Z,78.35
2023-03-03T11:06:02.389Z,95.72
2023-03-03T11:11:30.142Z,53.85
2023-03-03T11:14:01.011Z,89.50
2023-03-03T11:16:40.993Z,102.82
2023-03-03T11:19:27.033Z,107.55
2023-03-03T11:22:15.673Z,86.45
2023-03-03T11:25:04.344Z,88.57
2023-03-03T11:27:40.506Z,60.03
2023-03-03T11:30:36.022Z,73.03
2023-03-03T11:33:19.235Z,69.47
2023-03-03T11:36:21.318Z,62.70
2023-03-03T11:38:52.509Z,96.80
2023-03-03T11:41:53.390Z,51.50
2023-03-03T11:44:46.588Z,102.80
2023-03-03T11:47:31.308Z,83.13
2023-03-03T11:50:06.955Z,62.92
2023-03-03T11:52:53.630Z,95.55
2023-03-03T11:55:34.107Z,59.42
2023-03-03T11:58:20.919Z,57.25
2023-03-03T12:00:58.949Z,57.35
2023-03-03T12:03:48.265Z,62.45
2023-03-03T12:06:25.227Z,56.40
2023-03-03T12:09:13.994Z,67.78
2023-03-03T12:12:13.111Z,66.13
2023-03-03T12:15:23.433Z,60.92
2023-03-03T12:18:16.195Z,64.80
2023-03-03T12:21:05.921Z,61.67
2023-03-03T12:23:52.153Z,68.38
2023-03-03T12:26:51.565Z,53.50
2023-03-03T12:30:05.107Z,66.72
2023-03-03T12:33:00.711Z,65.32
2023-03-03T12:35:39.778Z,64.80
2023-03-03T12:38:38.714Z,61.95
2023-03-03T12:41:27.542Z,64.63
2023-03-03T12:44:23.283Z,56.95
2023-03-03T12:47:27.721Z,54.05
2023-03-03T12:50:10.547Z,61.80
2023-03-03T12:52:47.360Z,59.25
2023-03-03T12:55:29.581Z,58.70
2023-03-03T12:58:31.880Z,59.58
2023-03-03T13:01:06.783Z,108.68
2023-03-03T13:03:55.749Z,115.80
2023-03-03T13:06:32.696Z,120.28
2023-03-03T13:09:19.355Z,107.57
2023-03-03T13:12:14.001Z,111.57
2023-03-03T13:15:32.176Z,81.70
2023-03-03T13:18:22.935Z,54.58
2023-03-03T13:21:00.581Z,70.80
2023-03-03T13:23:34.870Z,65.88
2023-03-03T13:26:23.130Z,53.63
2023-03-03T13:29:12.898Z,74.32
2023-03-03T13:31:47.891Z,73.97
2023-03-03T13:34:30.259Z,79.20
2023-03-03T13:37:13.437Z,64.90
2023-03-03T13:39:50.579Z,71.40
2023-03-03T13:42:34.001Z,59.88
2023-03-03T13:45:04.106Z,62.30
2023-03-03T13:47:31.636Z,73.97
2023-03-03T13:50:24.260Z,68.75
2023-03-03T13:53:42.043Z,66.90
2023-03-03T13:56:42.911Z,58.40
2023-03-03T13:59:16.461Z,59.17
2023-03-03T14:01:58.392Z,70.85
2023-03-03T14:04:52.152Z,64.63
2023-03-03T14:07:29.356Z,51.33
2023-03-03T14:10:17.320Z,50.55
2023-03-03T14:12:50.258Z,53.97
2023-03-03T14:15:28.891Z,61.22
2023-03-03T14:18:08.516Z,65.68
2023-03-03T14:20:40.318Z,58.22
2023-03-03T14:23:17.711Z,56.65
2023-03-03T14:26:09.829Z,61.42
2023-03-03T14:28:44.502Z,63.20
2023-03-03T14:31:27.204Z,62.15
2023-03-03T14:34:23.247Z,60.23
2023-03-03T14:36:58.624Z,68.93
2023-03-03T14:39:38.242Z,64.97
2023-03-03T14:42:30.804Z,120.20
2023-03-03T14:45:01.306Z,71.47
2023-03-03T14:47:30.386Z,75.18
2023-03-03T14:50:03.999Z,76.40
2023-03-03T14:52:34.853Z,60.03
2023-03-03T14:55:23.911Z,58.85
2023-03-03T14:57:52.107Z,65.97
2023-03-03T15:00:22.703Z,60.47
2023-03-03T15:02:53.137Z,63.40
2023-03-03T15:05:24.347Z,75.68
2023-03-03T15:07:57.875Z,383.20
2023-03-03T15:10:37.576Z,161.88
2023-03-03T15:13:35.571Z,147.00
2023-03-03T15:16:16.275Z,121.82
2023-03-03T15:19:16.656Z,135.90
2023-03-03T15:22:10.543Z,81.68
2023-03-03T15:27:29.344Z,78.70
2023-03-03T15:30:09.497Z,71.55
2023-03-03T15:33:09.494Z,80.38
2023-03-03T15:36:05.055Z,78.40
2023-03-03T15:38:37.640Z,81.45
2023-03-03T15:41:38.194Z,77.30
2023-03-03T15:44:53.773Z,71.85
2023-03-03T15:47:44.036Z,91.20
2023-03-03T15:50:31.957Z,82.97
2023-03-03T15:53:18.190Z,67.60
2023-03-03T15:56:06.638Z,71.35
2023-03-03T15:58:58.710Z,84.60
2023-03-03T16:01:40.320Z,88.45
2023-03-03T16:04:18.635Z,82.18
2023-03-03T16:07:23.345Z,176.77
2023-03-03T16:10:12.506Z,135.20
2023-03-03T16:13:00.217Z,352.55
2023-03-03T16:15:55.991Z,105.88
2023-03-03T16:18:43.288Z,136.38
2023-03-03T16:21:39.334Z,152.75
2023-03-03T16:24:34.474Z,192.38
2023-03-03T16:27:18.635Z,439.90
2023-03-03T16:29:57.032Z,387.38
2023-03-03T16:32:43.168Z,111.40
2023-03-03T16:35:23.143Z,74.07
2023-03-03T16:37:50.863Z,74.75
2023-03-03T16:40:32.553Z,256.58
2023-03-03T16:43:13.868Z,160.35
2023-03-03T16:45:42.903Z,61.97
2023-03-03T16:48:51.543Z,67.30
2023-03-03T16:51:51.876Z,77.38
2023-03-03T16:54:45.635Z,89.60
2023-03-03T16:57:33.537Z,72.68
2023-03-03T17:00:07.867Z,63.25
2023-03-03T17:02:59.225Z,58.03
2023-03-03T17:05:26.781Z,60.60
2023-03-03T17:08:16.748Z,63.88
2023-03-03T17:11:00.143Z,61.53
2023-03-03T17:13:44.342Z,82.43
2023-03-03T17:16:46.252Z,138.23
2023-03-03T17:19:35.714Z,100.93
2023-03-03T17:22:09.009Z,132.68
2023-03-03T17:25:15.188Z,106.90
2023-03-03T17:28:12.566Z,80.32
2023-03-03T17:31:14.882Z,73.78
2023-03-03T17:33:55.142Z,48.75
2023-03-03T17:36:53.130Z,49.28
2023-03-03T17:39:50.532Z,51.28
2023-03-03T17:43:03.545Z,50.33
2023-03-03T17:45:36.756Z,48.70
2023-03-03T17:48:34.324Z,51.78
2023-03-03T17:51:04.763Z,52.10
2023-03-03T17:54:12.663Z,55.05
2023-03-03T17:56:55.254Z,53.60
2023-03-03T17:59:35.277Z,58.03
2023-03-03T18:02:37.973Z,56.85
2023-03-03T18:05:11.585Z,53.45
2023-03-03T18:07:49.137Z,58.72
2023-03-03T18:10:23.058Z,56.72
2023-03-03T18:12:59.071Z,61.88
2023-03-03T18:16:11.487Z,59.70
2023-03-03T18:19:06.700Z,57.90
2023-03-03T18:21:53.013Z,54.50
2023-03-03T18:24:48.739Z,60.53
2023-03-03T18:27:31.810Z,63.05
2023-03-03T18:30:26.321Z,65.88
2023-03-03T18:32:57.822Z,56.63
2023-03-03T18:35:38.953Z,70.30
2023-03-03T18:38:34.122Z,64.95
2023-03-03T18:41:13.139Z,63.45
2023-03-03T18:43:45.381Z,81.95
2023-03-03T18:46:23.920Z,57.15
2023-03-03T18:48:58.796Z,61.50
2023-03-03T18:51:51.950Z,77.68
2023-03-03T18:54:32.785Z,102.25
2023-03-03T18:57:01.661Z,64.40
2023-03-03T18:59:31.943Z,64.60
2023-03-03T19:02:31.130Z,63.13
2023-03-03T19:05:20.481Z,67.30
2023-03-03T19:08:25.432Z,73.40
2023-03-03T19:11:02.363Z,74.38
2023-03-03T19:13:38.627Z,78.30
2023-03-03T19:16:26.475Z,77.07
2023-03-03T19:18:59.481Z,81.00
2023-03-03T19:21:36.227Z,84.63
2023-03-03T19:24:34.348Z,80.60
2023-03-03T19:27:32.790Z,79.13
2023-03-03T19:30:45.065Z,84.63
2023-03-03T19:33:28.451Z,74.75
2023-03-03T19:36:05.370Z,81.10
2023-03-03T19:38:55.433Z,91.10
2023-03-03T19:41:48.886Z,93.47
2023-03-03T19:44:34.945Z,107.80
2023-03-03T19:47:11.474Z,83.10
2023-03-03T19:50:13.034Z,141.93
2023-03-03T19:52:53.556Z,115.20
2023-03-03T19:55:43.119Z,131.75
2023-03-03T19:58:46.346Z,551.00
2023-03-03T20:01:46.566Z,328.23
2023-03-03T20:04:39.174Z,264.30
2023-03-03T20:07:33.157Z,107.35
2023-03-03T20:10:27.735Z,91.13
2023-03-03T20:13:26.242Z,95.75
2023-03-03T20:16:14.478Z,97.72
2023-03-03T20:19:24.020Z,98.95
2023-03-03T20:22:13.580Z,102.82
2023-03-03T20:25:00.620Z,96.88
2023-03-03T20:27:58.782Z,99.47
2023-03-03T20:30:37.592Z,115.82
2023-03-03T20:33:26.756Z,98.30
2023-03-03T20:36:16.800Z,138.35
2023-03-03T20:38:53.071Z,491.88
2023-03-03T20:41:51.628Z,140.40
2023-03-03T20:44:45.977Z,155.80
2023-03-03T20:47:45.357Z,107.47
2023-03-03T20:50:38.040Z,105.00
2023-03-03T20:53:09.112Z,133.82
2023-03-03T20:55:59.400Z,152.88
2023-03-03T20:59:05.401Z,123.80
2023-03-03T21:01:43.187Z,115.15
2023-03-03T21:04:41.167Z,109.32
2023-03-03T21:07:23.281Z,106.95
2023-03-03T21:10:17.069Z,103.38
2023-03-03T21:12:46.952Z,100.75
2023-03-03T21:15:31.921Z,103.05
2023-03-03T21:18:01.327Z,102.22
2023-03-03T21:20:32.478Z,101.47
2023-03-03T21:23:02.185Z,90.80
2023-03-03T21:25:41.114Z,96.13
2023-03-03T21:28:21.794Z,99.35
2023-03-03T21:31:11.731Z,100.63
2023-03-03T21:33:42.849Z,108.95
2023-03-03T21:36:12.726Z,105.75
2023-03-03T21:38:42.564Z,103.45
2023-03-03T21:41:10.168Z,105.40
2023-03-03T21:43:39.913Z,105.03
2023-03-03T21:46:08.595Z,106.90
2023-03-03T21:48:35.809Z,97.20
2023-03-03T21:51:11.144Z,98.82
2023-03-03T21:53:38.432Z,95.28
2023-03-03T21:56:06.272Z,98.75
2023-03-03T21:58:33.890Z,100.90
2023-03-03T22:01:01.333Z,98.50
2023-03-03T22:03:28.478Z,104.88
2023-03-03T22:06:01.517Z,103.68
2023-03-03T22:08:29.821Z,104.75
2023-03-03T22:10:57.461Z,106.50
2023-03-03T22:13:30.901Z,119.47
2023-03-03T22:15:58.340Z,111.22
2023-03-03T22:18:26.838Z,116.35
2023-03-03T22:20:54.324Z,116.13
2023-03-03T22:23:22.034Z,114.35
2023-03-03T22:25:49.204Z,111.88
2023-03-03T22:28:16.625Z,98.38
2023-03-03T22:30:46.275Z,102.25
2023-03-03T22:33:13.599Z,107.82
2023-03-03T22:35:41.108Z,112.68
2023-03-03T22:38:08.562Z,115.70
2023-03-03T22:40:35.995Z,110.13
2023-03-03T22:43:03.736Z,112.70
2023-03-03T22:45:31.974Z,120.57
2023-03-03T22:47:59.644Z,112.93
2023-03-03T22:50:26.887Z,107.15
2023-03-03T22:52:55.286Z,105.03
2023-03-03T22:55:22.941Z,107.25
2023-03-03T22:57:50.310Z,107.88
2023-03-03T23:00:19.247Z,102.25
2023-03-03T23:02:46.390Z,100.43
2023-03-03T23:05:13.828Z,103.75
2023-03-03T23:07:41.818Z,102.88
2023-03-03T23:10:10.685Z,102.22
2023-03-03T23:12:38.120Z,96.63
2023-03-03T23:15:13.546Z,104.88
2023-03-03T23:17:45.910Z,111.03
2023-03-03T23:20:17.839Z,105.97
2023-03-03T23:22:45.497Z,110.38
2023-03-03T23:25:14.184Z,108.15
2023-03-03T23:27:43.139Z,112.15
2023-03-03T23:30:17.796Z,103.25
2023-03-03T23:32:47.932Z,102.25
2023-03-03T23:35:15.486Z,102.68
2023-03-03T23:37:45.257Z,103.13
2023-03-03T23:40:14.231Z,104.72
2023-03-03T23:42:43.706Z,100.72
2023-03-03T23:45:12.423Z,95.68
2023-03-03T23:47:40.079Z,100.15
2023-03-03T23:50:08.325Z,106.57
2023-03-03T23:52:36.034Z,111.40
2023-03-03T23:55:04.343Z,112.13
2023-03-03T23:57:31.855Z,103.63
